createdAt,value
2022-10-04T00:00:37.966Z,21.01
2022-10-04T00:03:25.801Z,20.82
2022-10-04T00:05:58.502Z,20.85
2022-10-04T00:08:48.033Z,20.79
2022-10-04T00:11:25.003Z,20.83
2022-10-04T00:14:20.869Z,21.03
2022-10-04T00:16:49.402Z,21.08
2022-10-04T00:19:16.315Z,20.23
2022-10-04T00:21:58.004Z,20.59
2022-10-04T00:24:31.116Z,20.98
2022-10-04T00:27:21.677Z,21.01
2022-10-04T00:30:23.473Z,20.62
2022-10-04T00:33:04.321Z,20.51
2022-10-04T00:35:31.182Z,20.13
2022-10-04T00:38:08.723Z,20.29
2022-10-04T00:40:51.673Z,20.35
2022-10-04T00:43:50.603Z,20.40
2022-10-04T00:46:27.876Z,20.35
2022-10-04T00:48:59.901Z,20.24
2022-10-04T00:51:33.497Z,20.00
2022-10-04T00:54:24.541Z,20.29
2022-10-04T00:57:16.313Z,20.38
2022-10-04T00:59:56.057Z,20.17
2022-10-04T01:02:33.647Z,20.14
2022-10-04T01:05:06.776Z,19.69
2022-10-04T01:07:46.548Z,20.12
2022-10-04T01:10:25.545Z,20.17
2022-10-04T01:13:22.178Z,20.21
2022-10-04T01:15:58.086Z,20.20
2022-10-04T01:18:25.538Z,19.88
2022-10-04T01:20:54.476Z,19.59
2022-10-04T01:23:44.754Z,20.13
2022-10-04T01:26:41.472Z,20.18
2022-10-04T01:29:12.920Z,19.76
2022-10-04T01:31:50.749Z,20.07
2022-10-04T01:34:24.761Z,20.11
2022-10-04T01:36:59.470Z,19.77
2022-10-04T01:39:28.584Z,19.75
2022-10-04T01:42:14.461Z,19.67
2022-10-04T01:44:53.690Z,19.70
2022-10-04T01:47:43.722Z,19.77
2022-10-04T01:51:08.020Z,19.73
2022-10-04T01:53:44.878Z,19.71
2022-10-04T01:56:17.623Z,19.56
2022-10-04T01:58:55.020Z,19.68
2022-10-04T02:01:49.563Z,19.40
2022-10-04T02:04:25.857Z,19.28
2022-10-04T02:06:56.991Z,19.50
2022-10-04T02:09:29.415Z,19.45
2022-10-04T02:11:58.274Z,19.31
2022-10-04T02:14:30.902Z,19.32
2022-10-04T02:16:58.757Z,19.48
2022-10-04T02:19:36.450Z,19.78
2022-10-04T02:22:05.473Z,19.58
2022-10-04T02:24:40.397Z,19.83
2022-10-04T02:27:07.501Z,19.44
2022-10-04T02:29:34.609Z,19.30
2022-10-04T02:32:23.821Z,19.33
2022-10-04T02:34:51.907Z,19.17
2022-10-04T02:37:19.364Z,18.88
2022-10-04T02:40:05.081Z,19.18
2022-10-04T02:43:00.461Z,19.19
2022-10-04T02:45:46.992Z,19.42
2022-10-04T02:48:59.309Z,19.53
2022-10-04T02:51:41.131Z,19.29
2022-10-04T02:54:35.774Z,19.41
2022-10-04T02:57:03.193Z,19.31
2022-10-04T02:59:35.233Z,19.33
2022-10-04T03:02:03.822Z,19.43
2022-10-04T03:04:39.586Z,19.81
2022-10-04T03:07:09.199Z,19.68
2022-10-04T03:09:39.620Z,19.83
2022-10-04T03:12:07.864Z,19.62
2022-10-04T03:14:35.004Z,19.23
2022-10-04T03:17:04.610Z,19.04
2022-10-04T03:19:33.718Z,19.06
2022-10-04T03:22:09.743Z,19.31
2022-10-04T03:24:53.946Z,19.21
2022-10-04T03:27:26.459Z,18.99
2022-10-04T03:29:58.910Z,18.80
2022-10-04T03:32:30.444Z,18.80
2022-10-04T03:35:03.103Z,18.70
2022-10-04T03:37:35.541Z,18.77
2022-10-04T03:40:04.149Z,18.58
2022-10-04T03:42:35.016Z,18.82
2022-10-04T03:45:07.519Z,18.71
2022-10-04T03:47:39.038Z,18.75
2022-10-04T03:50:17.002Z,18.84
2022-10-04T03:52:57.379Z,18.79
2022-10-04T03:55:32.756Z,18.80
2022-10-04T03:58:00.419Z,18.53
2022-10-04T04:00:28.762Z,18.55
2022-10-04T04:03:04.032Z,18.80
2022-10-04T04:05:40.138Z,18.66
2022-10-04T04:08:26.771Z,18.74
2022-10-04T04:10:57.461Z,18.56
2022-10-04T04:13:31.708Z,18.74
2022-10-04T04:16:02.528Z,18.86
2022-10-04T04:18:34.305Z,19.03
2022-10-04T04:21:03.657Z,18.84
2022-10-04T04:23:36.586Z,18.61
2022-10-04T04:26:41.045Z,18.85
2022-10-04T04:29:22.307Z,18.73
2022-10-04T04:32:02.054Z,19.04
2022-10-04T04:34:34.263Z,19.00
2022-10-04T04:37:04.249Z,19.08
2022-10-04T04:39:39.746Z,18.94
2022-10-04T04:42:25.258Z,18.67
2022-10-04T04:45:19.400Z,18.89
2022-10-04T04:47:50.479Z,18.67
2022-10-04T04:50:21.522Z,18.68
2022-10-04T04:53:16.325Z,18.76
2022-10-04T04:56:05.149Z,18.74
2022-10-04T04:59:02.387Z,18.94
2022-10-04T05:01:42.473Z,18.92
2022-10-04T05:04:09.572Z,18.56
2022-10-04T05:07:02.276Z,18.60
2022-10-04T05:09:36.047Z,18.87
2022-10-04T05:12:22.424Z,18.91
2022-10-04T05:14:53.101Z,18.73
2022-10-04T05:17:24.956Z,18.75
2022-10-04T05:19:56.522Z,18.61
2022-10-04T05:22:25.299Z,18.64
2022-10-04T05:25:08.892Z,18.83
2022-10-04T05:27:42.772Z,18.73
2022-10-04T05:30:55.000Z,18.91
2022-10-04T05:33:46.833Z,18.64
2022-10-04T05:36:38.502Z,18.80
2022-10-04T05:39:29.536Z,18.69
2022-10-04T05:42:16.219Z,18.65
2022-10-04T05:44:56.915Z,18.54
2022-10-04T05:47:28.430Z,18.57
2022-10-04T05:49:58.207Z,18.52
2022-10-04T05:52:40.078Z,18.69
2022-10-04T05:55:13.216Z,18.58
2022-10-04T05:57:58.928Z,18.58
2022-10-04T06:01:13.793Z,18.67
2022-10-04T06:04:34.195Z,18.89
2022-10-04T06:07:25.818Z,18.92
2022-10-04T06:10:17.156Z,19.01
2022-10-04T06:13:06.890Z,18.66
2022-10-04T06:15:46.519Z,18.15
2022-10-04T06:18:44.245Z,18.46
2022-10-04T06:21:58.898Z,18.36
2022-10-04T06:24:35.399Z,18.15
2022-10-04T06:27:23.580Z,18.13
2022-10-04T06:30:06.110Z,17.94
2022-10-04T06:33:18.656Z,18.72
2022-10-04T06:35:51.436Z,18.08
2022-10-04T06:38:55.957Z,17.97
2022-10-04T06:41:42.791Z,18.45
2022-10-04T06:44:37.828Z,18.57
2022-10-04T06:47:47.253Z,18.33
2022-10-04T06:50:28.586Z,18.12
2022-10-04T06:53:16.756Z,18.02
2022-10-04T06:56:10.754Z,18.25
2022-10-04T06:59:09.729Z,18.68
2022-10-04T07:02:06.526Z,18.51
2022-10-04T07:05:07.539Z,18.44
2022-10-04T07:07:39.323Z,18.46
2022-10-04T07:10:23.533Z,18.55
2022-10-04T07:13:04.101Z,18.57
2022-10-04T07:15:47.967Z,18.42
2022-10-04T07:18:27.048Z,18.35
2022-10-04T07:21:20.793Z,18.76
2022-10-04T07:24:03.965Z,18.89
2022-10-04T07:26:46.894Z,18.66
2022-10-04T07:29:26.555Z,18.39
2022-10-04T07:32:05.953Z,18.56
2022-10-04T07:34:57.485Z,18.74
2022-10-04T07:37:28.785Z,18.45
2022-10-04T07:40:09.944Z,18.63
2022-10-04T07:42:52.966Z,18.52
2022-10-04T07:45:29.740Z,18.69
2022-10-04T07:48:23.153Z,18.66
2022-10-04T07:51:04.965Z,18.43
2022-10-04T07:53:42.954Z,18.84
2022-10-04T07:56:30.503Z,18.98
2022-10-04T07:59:25.183Z,19.17
2022-10-04T08:02:26.646Z,19.31
2022-10-04T08:05:29.293Z,18.19
2022-10-04T08:08:34.872Z,18.88
2022-10-04T08:11:16.302Z,18.75
2022-10-04T08:14:17.646Z,18.80
2022-10-04T08:17:15.925Z,18.64
2022-10-04T08:20:04.986Z,18.68
2022-10-04T08:22:56.652Z,18.82
2022-10-04T08:25:42.578Z,18.97
2022-10-04T08:29:07.887Z,19.29
2022-10-04T08:32:07.181Z,18.97
2022-10-04T08:34:56.539Z,19.72
2022-10-04T08:37:53.649Z,19.50
2022-10-04T08:40:49.839Z,19.08
2022-10-04T08:43:56.807Z,19.33
2022-10-04T08:46:59.129Z,19.38
2022-10-04T08:50:09.997Z,19.53
2022-10-04T08:52:59.212Z,19.76
2022-10-04T08:56:34.515Z,19.72
2022-10-04T09:00:03.654Z,19.51
2022-10-04T09:02:58.607Z,19.60
2022-10-04T09:06:01.003Z,19.18
2022-10-04T09:08:58.705Z,19.71
2022-10-04T09:11:34.581Z,20.19
2022-10-04T09:14:32.340Z,19.99
2022-10-04T09:17:22.731Z,20.34
2022-10-04T09:20:37.780Z,20.19
2022-10-04T09:23:30.206Z,20.07
2022-10-04T09:26:19.093Z,20.07
2022-10-04T09:29:45.596Z,20.59
2022-10-04T09:32:57.726Z,20.56
2022-10-04T09:36:02.924Z,20.64
2022-10-04T09:39:29.529Z,20.74
2022-10-04T09:42:09.360Z,20.73
2022-10-04T09:45:31.234Z,21.73
2022-10-04T09:48:07.802Z,19.62
2022-10-04T09:51:09.388Z,20.41
2022-10-04T09:54:10.525Z,21.48
2022-10-04T09:57:17.607Z,21.46
2022-10-04T10:00:02.796Z,20.73
2022-10-04T10:03:03.848Z,21.39
2022-10-04T10:05:56.856Z,20.96
2022-10-04T10:08:55.518Z,21.53
2022-10-04T10:12:11.813Z,21.43
2022-10-04T10:15:09.357Z,22.03
2022-10-04T10:18:22.662Z,22.15
2022-10-04T10:21:20.783Z,21.92
2022-10-04T10:24:08.841Z,22.42
2022-10-04T10:27:15.290Z,22.40
2022-10-04T10:30:48.654Z,22.14
2022-10-04T10:39:58.751Z,22.72
2022-10-04T10:42:58.853Z,22.94
2022-10-04T10:45:50.096Z,22.89
2022-10-04T10:48:50.747Z,22.52
2022-10-04T10:51:55.785Z,22.71
2022-10-04T10:55:00.869Z,22.56
2022-10-04T10:58:50.645Z,22.97
2022-10-04T11:01:50.950Z,23.41
2022-10-04T11:04:43.986Z,23.13
2022-10-04T11:07:53.535Z,23.76
2022-10-04T11:11:06.069Z,23.84
2022-10-04T11:17:28.670Z,23.83
2022-10-04T11:20:52.783Z,23.12
2022-10-04T11:24:03.612Z,25.79
2022-10-04T11:27:00.119Z,29.88
2022-10-04T11:30:03.473Z,30.75
2022-10-04T11:33:23.174Z,29.38
2022-10-04T11:36:27.096Z,30.62
2022-10-04T11:39:52.345Z,31.91
2022-10-04T11:43:00.604Z,30.90
2022-10-04T11:46:10.675Z,32.18
2022-10-04T11:49:22.911Z,32.22
2022-10-04T11:52:25.765Z,33.57
2022-10-04T11:55:35.220Z,31.25
2022-10-04T11:58:39.678Z,30.05
2022-10-04T12:01:50.025Z,31.46
2022-10-04T12:05:07.559Z,30.94
2022-10-04T12:07:54.915Z,28.33
2022-10-04T12:10:29.419Z,28.94
2022-10-04T12:13:07.186Z,31.61
2022-10-04T12:15:59.352Z,28.35
2022-10-04T12:19:15.411Z,27.91
2022-10-04T12:22:17.541Z,30.66
2022-10-04T12:25:12.738Z,28.96
2022-10-04T12:28:11.712Z,29.09
2022-10-04T12:31:49.651Z,28.65
2022-10-04T12:34:37.640Z,29.00
2022-10-04T12:37:13.659Z,30.27
2022-10-04T12:40:23.498Z,30.26
2022-10-04T12:43:47.148Z,29.93
2022-10-04T12:47:11.782Z,30.93
2022-10-04T12:50:26.220Z,30.67
2022-10-04T12:53:17.041Z,32.82
2022-10-04T12:55:55.697Z,30.58
2022-10-04T12:58:36.386Z,29.57
2022-10-04T13:01:32.956Z,29.43
2022-10-04T13:04:13.168Z,31.05
2022-10-04T13:07:07.640Z,31.49
2022-10-04T13:10:27.861Z,31.06
2022-10-04T13:13:21.144Z,30.60
2022-10-04T13:19:20.063Z,35.10
2022-10-04T13:22:37.680Z,36.31
2022-10-04T13:25:24.971Z,38.89
2022-10-04T13:28:23.013Z,40.93
2022-10-04T13:31:04.231Z,40.33
2022-10-04T13:34:01.622Z,38.60
2022-10-04T13:37:00.916Z,40.38
2022-10-04T13:39:59.990Z,37.13
2022-10-04T13:42:58.967Z,37.46
2022-10-04T13:46:03.086Z,38.07
2022-10-04T13:49:11.539Z,33.95
2022-10-04T13:52:16.720Z,30.32
2022-10-04T13:55:23.538Z,33.08
2022-10-04T13:58:18.257Z,32.61
2022-10-04T14:01:25.286Z,30.45
2022-10-04T14:04:19.956Z,29.20
2022-10-04T14:07:19.656Z,27.88
2022-10-04T14:10:29.324Z,28.23
2022-10-04T14:13:38.506Z,28.28
2022-10-04T14:17:05.625Z,28.29
2022-10-04T14:19:50.708Z,28.57
2022-10-04T14:22:53.781Z,28.35
2022-10-04T14:25:21.648Z,28.06
2022-10-04T14:28:14.364Z,29.34
2022-10-04T14:31:08.593Z,28.61
2022-10-04T14:33:54.837Z,27.88
2022-10-04T14:37:19.159Z,27.91
2022-10-04T14:40:16.801Z,28.81
2022-10-04T14:43:34.763Z,28.49
2022-10-04T14:46:08.085Z,28.39
2022-10-04T14:48:59.306Z,28.71
2022-10-04T14:52:14.383Z,28.70
2022-10-04T14:55:02.907Z,27.77
2022-10-04T14:58:03.867Z,27.74
2022-10-04T15:01:23.580Z,27.07
2022-10-04T15:04:19.638Z,28.08
2022-10-04T15:06:51.722Z,26.63
2022-10-04T15:09:37.105Z,27.18
2022-10-04T15:13:09.478Z,28.07
2022-10-04T15:15:50.105Z,27.45
2022-10-04T15:18:48.321Z,27.45
2022-10-04T15:21:43.923Z,27.33
2022-10-04T15:24:16.781Z,26.81
2022-10-04T15:27:31.039Z,26.86
2022-10-04T15:30:19.064Z,26.33
2022-10-04T15:33:23.823Z,27.43
2022-10-04T15:36:38.048Z,26.91
2022-10-04T15:39:31.193Z,27.30
2022-10-04T15:42:14.059Z,27.20
2022-10-04T15:45:04.346Z,26.96
2022-10-04T15:48:13.673Z,26.67
2022-10-04T15:51:18.143Z,25.51
2022-10-04T15:54:22.158Z,26.73
2022-10-04T15:57:46.218Z,25.98
2022-10-04T16:00:15.672Z,25.29
2022-10-04T16:03:19.554Z,26.32
2022-10-04T16:06:08.207Z,26.25
2022-10-04T16:09:31.919Z,26.38
2022-10-04T16:12:48.945Z,26.79
2022-10-04T16:15:32.495Z,26.55
2022-10-04T16:18:16.774Z,27.18
2022-10-04T16:21:16.009Z,26.98
2022-10-04T16:23:45.174Z,26.66
2022-10-04T16:26:19.434Z,26.65
2022-10-04T16:29:29.314Z,26.86
2022-10-04T16:32:13.220Z,26.41
2022-10-04T16:34:46.325Z,26.72
2022-10-04T16:37:35.240Z,26.83
2022-10-04T16:40:37.712Z,26.84
2022-10-04T16:43:35.690Z,26.74
2022-10-04T16:46:29.953Z,26.96
2022-10-04T16:49:20.401Z,26.67
2022-10-04T16:52:29.146Z,26.53
2022-10-04T16:55:37.682Z,26.63
2022-10-04T16:58:26.872Z,26.23
2022-10-04T17:01:28.912Z,26.46
2022-10-04T17:04:12.119Z,26.13
2022-10-04T17:07:16.164Z,26.07
2022-10-04T17:10:16.197Z,26.29
2022-10-04T17:12:59.906Z,26.40
2022-10-04T17:15:59.349Z,25.82
2022-10-04T17:18:52.073Z,25.63
2022-10-04T17:21:49.382Z,25.44
2022-10-04T17:24:51.513Z,25.53
2022-10-04T17:27:47.103Z,25.36
2022-10-04T17:30:21.859Z,25.02
2022-10-04T17:33:12.593Z,25.24
2022-10-04T17:36:21.376Z,25.28
2022-10-04T17:39:23.948Z,25.12
2022-10-04T17:42:41.867Z,24.81
2022-10-04T17:45:31.656Z,24.65
2022-10-04T17:48:49.738Z,24.99
2022-10-04T17:52:08.979Z,24.98
2022-10-04T17:54:57.634Z,25.19
2022-10-04T17:57:35.842Z,25.03
2022-10-04T18:00:13.180Z,25.07
2022-10-04T18:03:11.677Z,24.78
2022-10-04T18:05:41.545Z,25.05
2022-10-04T18:08:14.332Z,24.59
2022-10-04T18:11:04.444Z,24.21
2022-10-04T18:13:51.073Z,25.00
2022-10-04T18:16:30.226Z,24.46
2022-10-04T18:19:08.155Z,24.56
2022-10-04T18:21:51.287Z,25.03
2022-10-04T18:24:21.222Z,25.27
2022-10-04T18:27:05.775Z,25.08
2022-10-04T18:30:04.281Z,25.11
2022-10-04T18:32:35.072Z,24.74
2022-10-04T18:35:28.301Z,25.50
2022-10-04T18:38:24.529Z,25.65
2022-10-04T18:41:21.410Z,25.90
2022-10-04T18:44:04.195Z,24.92
2022-10-04T18:46:42.425Z,24.26
2022-10-04T18:49:18.060Z,24.61
2022-10-04T18:52:23.318Z,24.39
2022-10-04T18:55:15.556Z,24.26
2022-10-04T18:58:04.544Z,24.36
2022-10-04T19:01:01.723Z,23.91
2022-10-04T19:04:00.315Z,24.20
2022-10-04T19:06:31.619Z,24.71
2022-10-04T19:09:25.250Z,24.90
2022-10-04T19:12:13.669Z,24.92
2022-10-04T19:15:10.861Z,24.45
2022-10-04T19:18:28.078Z,25.25
2022-10-04T19:21:45.686Z,25.13
2022-10-04T19:25:08.204Z,25.14
2022-10-04T19:27:50.669Z,24.78
2022-10-04T19:30:26.428Z,24.30
2022-10-04T19:33:20.476Z,25.18
2022-10-04T19:36:22.304Z,24.92
2022-10-04T19:39:02.713Z,25.01
2022-10-04T19:41:57.485Z,26.09
2022-10-04T19:44:57.940Z,25.12
2022-10-04T19:47:40.548Z,24.88
2022-10-04T19:50:18.529Z,25.25
2022-10-04T19:53:14.628Z,24.90
2022-10-04T19:55:55.920Z,25.20
2022-10-04T19:58:48.398Z,24.69
2022-10-04T20:01:23.026Z,24.01
2022-10-04T20:04:15.976Z,24.57
2022-10-04T20:06:50.102Z,24.79
2022-10-04T20:09:32.041Z,24.94
2022-10-04T20:12:00.789Z,23.73
2022-10-04T20:14:27.696Z,23.79
2022-10-04T20:17:02.161Z,22.81
2022-10-04T20:19:29.030Z,23.63
2022-10-04T20:22:08.271Z,23.55
2022-10-04T20:24:38.285Z,23.39
2022-10-04T20:27:28.487Z,24.10
2022-10-04T20:29:57.128Z,23.80
2022-10-04T20:32:27.079Z,24.24
2022-10-04T20:34:56.835Z,23.95
2022-10-04T20:37:43.959Z,23.64
2022-10-04T20:40:40.369Z,23.93
2022-10-04T20:43:16.428Z,23.96
2022-10-04T20:45:54.474Z,24.04
2022-10-04T20:48:27.370Z,24.00
2022-10-04T20:50:55.697Z,23.71
2022-10-04T20:53:29.588Z,23.89
2022-10-04T20:56:30.402Z,23.73
2022-10-04T20:59:03.465Z,23.41
2022-10-04T21:01:37.221Z,23.01
2022-10-04T21:04:30.778Z,23.18
2022-10-04T21:07:07.124Z,23.14
2022-10-04T21:09:37.158Z,23.10
2022-10-04T21:12:06.858Z,22.93
2022-10-04T21:14:38.044Z,23.24
2022-10-04T21:17:29.846Z,23.44
2022-10-04T21:19:57.107Z,23.28
2022-10-04T21:22:28.807Z,23.29
2022-10-04T21:25:05.439Z,23.42
2022-10-04T21:27:36.035Z,23.31
2022-10-04T21:30:17.842Z,23.42
2022-10-04T21:32:44.835Z,23.07
2022-10-04T21:35:13.111Z,22.97
2022-10-04T21:37:40.707Z,22.97
2022-10-04T21:40:19.592Z,22.85
2022-10-04T21:42:46.723Z,22.66
2022-10-04T21:45:13.810Z,22.56
2022-10-04T21:47:40.880Z,22.64
2022-10-04T21:50:08.333Z,22.76
2022-10-04T21:52:35.323Z,22.40
2022-10-04T21:55:02.337Z,22.75
2022-10-04T21:57:34.697Z,22.22
2022-10-04T22:00:03.224Z,21.87
2022-10-04T22:02:39.313Z,22.37
2022-10-04T22:05:06.545Z,22.46
2022-10-04T22:07:33.664Z,22.34
2022-10-04T22:10:00.647Z,22.45
2022-10-04T22:12:27.622Z,22.49
2022-10-04T22:14:54.561Z,22.39
2022-10-04T22:17:21.522Z,22.59
2022-10-04T22:19:49.861Z,22.33
2022-10-04T22:22:17.346Z,22.41
2022-10-04T22:24:44.733Z,22.42
2022-10-04T22:27:15.182Z,22.63
2022-10-04T22:29:42.824Z,22.33
2022-10-04T22:32:27.948Z,22.45
2022-10-04T22:35:14.419Z,22.54
2022-10-04T22:37:42.042Z,22.45
2022-10-04T22:40:21.731Z,22.21
2022-10-04T22:42:57.072Z,22.01
2022-10-04T22:45:30.486Z,22.11
2022-10-04T22:48:01.292Z,22.28
2022-10-04T22:50:34.367Z,22.14
2022-10-04T22:53:16.957Z,22.30
2022-10-04T22:55:43.983Z,21.68
2022-10-04T22:58:15.172Z,22.19
2022-10-04T23:00:43.488Z,22.00
2022-10-04T23:03:31.471Z,22.12
2022-10-04T23:06:03.039Z,21.98
2022-10-04T23:08:30.682Z,21.82
2022-10-04T23:11:00.481Z,21.94
2022-10-04T23:13:27.894Z,21.77
2022-10-04T23:16:00.529Z,22.24
2022-10-04T23:18:29.259Z,22.03
2022-10-04T23:21:00.319Z,22.41
2022-10-04T23:23:30.668Z,21.83
2022-10-04T23:25:57.701Z,21.50
2022-10-04T23:28:25.049Z,21.66
2022-10-04T23:31:14.538Z,21.57
2022-10-04T23:33:42.041Z,21.64
2022-10-04T23:36:12.018Z,21.70
2022-10-04T23:38:39.155Z,21.15
2022-10-04T23:41:11.507Z,21.71
2022-10-04T23:43:39.149Z,21.71
2022-10-04T23:46:15.458Z,21.63
2022-10-04T23:48:43.114Z,21.60
2022-10-04T23:51:15.296Z,22.26
2022-10-04T23:53:43.801Z,21.86
2022-10-04T23:56:24.801Z,22.31
2022-10-04T23:58:55.529Z,22.06
